This is the latest recevied weather packets stored in our database for station/object SV9TNF-2. If no packets are shown the sender has not sent any weather packets the latest 10 day(s).
| Time | Temp. | Humidity | Pressure | Rain* | Wind** | Luminosity | Snow |
|---|---|---|---|---|---|---|---|
| 1778061626 | 22.78° C | 39% | 1023.4 hPa | 0 mm | 2.68 m/s, 62° | - | - |
| 1778061326 | 22.78° C | 44% | 1023.4 hPa | 0 mm | 2.24 m/s, 28° | - | - |
| 1778061027 | 23.33° C | 41% | 1023.4 hPa | 0 mm | 3.58 m/s, 82° | - | - |
| 1778060726 | 23.33° C | 38% | 1023.4 hPa | 0 mm | 4.02 m/s, 64° | - | - |
| 1778060426 | 23.33° C | 37% | 1023.4 hPa | 0 mm | 2.24 m/s, 60° | - | - |
| 1778060126 | 22.78° C | 44% | 1023.4 hPa | 0 mm | 3.13 m/s, 65° | - | - |
| 1778059826 | 22.78° C | 47% | 1023.4 hPa | 0 mm | 4.47 m/s, 84° | - | - |
| 1778059526 | 23.33° C | 44% | 1023.4 hPa | 0 mm | 2.68 m/s, 87° | - | - |
| 1778059226 | 22.78° C | 51% | 1023.4 hPa | 0 mm | 4.02 m/s, 72° | - | - |
| 1778058926 | 22.22° C | 55% | 1023.4 hPa | 0 mm | 3.13 m/s, 72° | - | - |
| 1778058626 | 22.78° C | 56% | 1023.4 hPa | 0 mm | 3.13 m/s, 63° | - | - |
| 1778058326 | 23.33° C | 48% | 1023.4 hPa | 0 mm | 4.02 m/s, 115° | - | - |
| 1778058026 | 23.33° C | 52% | 1023.4 hPa | 0 mm | 2.24 m/s, 72° | - | - |
| 1778057725 | 24.44° C | 47% | 1023.4 hPa | 0 mm | 1.34 m/s, 73° | - | - |
| 1778057425 | 25° C | 45% | 1023.4 hPa | 0 mm | 0.89 m/s, 74° | - | - |
| 1778057125 | 23.33° C | 46% | 1023.4 hPa | 0 mm | 1.79 m/s, 60° | - | - |
| 1778056825 | 23.33° C | 46% | 1023.4 hPa | 0 mm | 0.45 m/s, 79° | - | - |
| 1778056525 | 23.33° C | 45% | 1023.4 hPa | 0 mm | 4.92 m/s, 63° | - | - |
| 1778056225 | 23.89° C | 45% | 1023.4 hPa | 0 mm | 1.34 m/s, 74° | - | - |
| 1778055925 | 23.33° C | 43% | 1023.4 hPa | 0 mm | 0.89 m/s, 57° | - | - |
| 1778055624 | 24.44° C | 41% | 1023.4 hPa | 0 mm | 1.79 m/s, 87° | - | - |
| 1778055325 | 25.56° C | 42% | 1023.4 hPa | 0 mm | 1.79 m/s, 136° | - | - |
| 1778055024 | 25.56° C | 39% | 1023.4 hPa | 0 mm | 0.45 m/s, 51° | - | - |
| 1778054724 | 25° C | 51% | 1023.4 hPa | 0 mm | 1.79 m/s, 99° | - | - |
| 1778054425 | 25.56° C | 47% | 1023.4 hPa | 0 mm | 0.89 m/s, 93° | - | - |
* Rain latest hour (hover to see other rain measurements)
** Current wind speed in m/s (hover to see current wind gust speed)